createdAt,value
2019-05-21T00:00:19.331Z,3.4
2019-05-21T00:02:18.858Z,3.7
2019-05-21T00:04:27.722Z,3.7
2019-05-21T00:06:18.050Z,3.6
2019-05-21T00:08:17.761Z,3.6
2019-05-21T00:10:17.586Z,3.9
2019-05-21T00:12:19.329Z,3.4
2019-05-21T00:14:18.786Z,3.6
2019-05-21T00:16:18.508Z,4.1
2019-05-21T00:18:18.194Z,4
2019-05-21T00:20:18.023Z,3.6
2019-05-21T00:22:17.835Z,3.5
2019-05-21T00:24:17.509Z,3.6
2019-05-21T00:26:19.057Z,3.4
2019-05-21T00:28:18.429Z,4
2019-05-21T00:30:18.145Z,3.3
2019-05-21T00:32:17.754Z,4.5
2019-05-21T00:34:19.397Z,4.1
2019-05-21T00:36:18.699Z,3.9
2019-05-21T00:38:18.349Z,3.8
2019-05-21T00:40:18.087Z,4
2019-05-21T00:42:17.738Z,4
2019-05-21T00:44:19.464Z,4
2019-05-21T00:46:18.761Z,4
2019-05-21T00:48:18.390Z,3.4
2019-05-21T00:50:18.146Z,4.2
2019-05-21T00:52:17.837Z,3.7
2019-05-21T00:54:19.485Z,3.5
2019-05-21T00:56:18.745Z,3.3
2019-05-21T00:58:18.501Z,4
2019-05-21T01:00:18.162Z,3.7
2019-05-21T01:02:17.868Z,3.5
2019-05-21T01:04:19.427Z,3.7
2019-05-21T01:06:18.670Z,4.1
2019-05-21T01:08:18.371Z,4
2019-05-21T01:10:18.127Z,4.8
2019-05-21T01:12:17.784Z,3.6
2019-05-21T01:14:19.503Z,4.3
2019-05-21T01:16:18.801Z,4.5
2019-05-21T01:18:18.361Z,3.6
2019-05-21T01:20:18.074Z,3.8
2019-05-21T01:22:17.782Z,3.8
2019-05-21T01:24:19.512Z,3.7
2019-05-21T01:26:18.927Z,3.9
2019-05-21T01:28:18.342Z,3.5
2019-05-21T01:30:18.170Z,3.2
2019-05-21T01:32:17.916Z,3.7
2019-05-21T01:34:17.552Z,4.3
2019-05-21T01:36:19.284Z,4.8
2019-05-21T01:38:17.722Z,3.3
2019-05-21T01:40:18.591Z,4.8
2019-05-21T01:42:18.368Z,3.4
2019-05-21T01:44:18.003Z,4
2019-05-21T01:46:17.689Z,4.9
2019-05-21T01:48:19.446Z,3.7
2019-05-21T01:50:19.019Z,4.9
2019-05-21T01:52:18.486Z,4.1
2019-05-21T01:54:18.102Z,3.7
2019-05-21T01:56:17.848Z,4.3
2019-05-21T01:58:19.520Z,4.3
2019-05-21T02:00:19.034Z,3.5
2019-05-21T02:02:18.473Z,4.4
2019-05-21T02:04:18.032Z,4.5
2019-05-21T02:06:17.768Z,4.4
2019-05-21T02:08:17.565Z,4.7
2019-05-21T02:10:19.113Z,4.9
2019-05-21T02:12:18.582Z,4.3
2019-05-21T02:14:18.168Z,5
2019-05-21T02:16:17.996Z,3.8
2019-05-21T02:18:17.806Z,5.4
2019-05-21T02:20:19.528Z,4.5
2019-05-21T02:22:18.977Z,3.6
2019-05-21T02:24:18.424Z,3.5
2019-05-21T02:26:18.223Z,4.8
2019-05-21T02:28:17.930Z,4.5
2019-05-21T02:30:17.597Z,4.6
2019-05-21T02:32:19.303Z,4.2
2019-05-21T02:34:18.800Z,3.7
2019-05-21T02:36:18.259Z,4.1
2019-05-21T02:38:17.893Z,4.3
2019-05-21T02:40:17.551Z,4.6
2019-05-21T02:42:19.267Z,3.9
2019-05-21T02:44:18.670Z,3.8
2019-05-21T02:46:18.399Z,3.9
2019-05-21T02:48:18.042Z,4.6
2019-05-21T02:50:17.748Z,4.4
2019-05-21T02:52:19.446Z,4.3
2019-05-21T02:54:18.510Z,5
2019-05-21T02:56:18.318Z,4.6
2019-05-21T02:58:18.073Z,4.9
2019-05-21T03:00:17.765Z,4.9
2019-05-21T03:02:19.465Z,4.3
2019-05-21T03:04:18.918Z,4.8
2019-05-21T03:06:18.432Z,5.1
2019-05-21T03:08:18.108Z,4.2
2019-05-21T03:10:17.870Z,4.1
2019-05-21T03:12:17.672Z,4.2
2019-05-21T03:14:19.425Z,4.2
2019-05-21T03:16:18.674Z,4.9
2019-05-21T03:18:18.465Z,4.1
2019-05-21T03:20:18.162Z,3.9
2019-05-21T03:22:17.715Z,4.2
2019-05-21T03:24:19.481Z,3.9
2019-05-21T03:26:19.033Z,4.8
2019-05-21T03:28:18.501Z,4
2019-05-21T03:30:18.206Z,4.5
2019-05-21T03:32:17.925Z,3.7
2019-05-21T03:34:17.570Z,4.3
2019-05-21T03:36:32.272Z,4.5
2019-05-21T03:38:18.712Z,3.8
2019-05-21T03:40:18.627Z,3.8
2019-05-21T03:42:18.404Z,4.2
2019-05-21T03:44:18.050Z,4.3
2019-05-21T03:46:17.754Z,4.3
2019-05-21T03:48:19.374Z,4.3
2019-05-21T03:50:18.894Z,4.2
2019-05-21T03:52:18.426Z,4.6
2019-05-21T03:54:18.158Z,4.4
2019-05-21T03:56:17.974Z,4.8
2019-05-21T03:58:17.569Z,4.2
2019-05-21T04:00:19.341Z,3.9
2019-05-21T04:02:18.797Z,4.3
2019-05-21T04:04:18.518Z,4.4
2019-05-21T04:06:18.329Z,4.8
2019-05-21T04:08:18.045Z,5.4
2019-05-21T04:10:17.762Z,5
2019-05-21T04:12:17.449Z,4.5
2019-05-21T04:14:19.170Z,4.8
2019-05-21T04:16:18.742Z,4.5
2019-05-21T04:18:17.403Z,5.6
2019-05-21T04:20:18.117Z,5.2
2019-05-21T04:22:17.828Z,6.2
2019-05-21T04:24:17.431Z,5.5
2019-05-21T04:26:18.984Z,6.2
2019-05-21T04:28:17.449Z,6.1
2019-05-21T04:30:18.149Z,5.6
2019-05-21T04:32:17.978Z,5.6
2019-05-21T04:34:17.664Z,5.6
2019-05-21T04:36:19.471Z,6.2
2019-05-21T04:38:18.927Z,6.5
2019-05-21T04:40:18.556Z,7.1
2019-05-21T04:42:18.242Z,6.8
2019-05-21T04:44:17.913Z,6.9
2019-05-21T04:46:17.678Z,6
2019-05-21T04:48:19.517Z,7.8
2019-05-21T04:50:18.645Z,6.8
2019-05-21T04:52:18.232Z,6.5
2019-05-21T04:54:17.887Z,8.5
2019-05-21T04:56:17.609Z,6.1
2019-05-21T04:58:18.446Z,6.8
2019-05-21T05:00:18.110Z,6.8
2019-05-21T05:02:17.934Z,6.1
2019-05-21T05:04:21.590Z,7.8
2019-05-21T05:06:19.197Z,7
2019-05-21T05:08:18.671Z,7.6
2019-05-21T05:10:18.469Z,7.4
2019-05-21T05:12:18.180Z,7.5
2019-05-21T05:14:16.798Z,6
2019-05-21T05:16:17.553Z,6.4
2019-05-21T05:18:18.493Z,6.5
2019-05-21T05:20:18.240Z,6.3
2019-05-21T05:22:17.808Z,5.6
2019-05-21T05:24:17.448Z,6.6
2019-05-21T05:26:18.573Z,5.7
2019-05-21T05:28:18.235Z,6.3
2019-05-21T05:30:17.942Z,5.6
2019-05-21T05:32:17.601Z,6.7
2019-05-21T05:34:19.308Z,6.7
2019-05-21T05:36:17.590Z,6
2019-05-21T05:38:18.178Z,6.8
2019-05-21T05:40:17.893Z,6.4
2019-05-21T05:42:17.601Z,6
2019-05-21T05:44:18.377Z,6.7
2019-05-21T05:46:17.607Z,6.8
2019-05-21T05:48:18.256Z,6.6
2019-05-21T05:50:16.990Z,5.7
2019-05-21T05:52:17.704Z,6.2
2019-05-21T05:54:19.522Z,5
2019-05-21T05:56:18.819Z,5.2
2019-05-21T05:58:18.280Z,4.9
2019-05-21T06:00:18.168Z,6.1
2019-05-21T06:02:17.929Z,5.1
2019-05-21T06:04:16.583Z,5.3
2019-05-21T06:06:19.202Z,6.1
2019-05-21T06:08:18.653Z,6.4
2019-05-21T06:10:18.445Z,4.8
2019-05-21T06:12:18.001Z,5.4
2019-05-21T06:14:17.572Z,5.6
2019-05-21T06:16:18.656Z,5.7
2019-05-21T06:18:18.371Z,6
2019-05-21T06:20:18.079Z,5
2019-05-21T06:22:17.850Z,5.4
2019-05-21T06:24:19.425Z,6
2019-05-21T06:26:18.581Z,5.9
2019-05-21T06:28:18.229Z,5.6
2019-05-21T06:30:16.890Z,5.2
2019-05-21T06:32:17.572Z,5.5
2019-05-21T06:34:19.342Z,5.4
2019-05-21T06:36:18.594Z,5.2
2019-05-21T06:38:18.556Z,4.9
2019-05-21T06:40:18.035Z,4.1
2019-05-21T06:42:16.717Z,4.5
2019-05-21T06:44:19.614Z,5.6
2019-05-21T06:46:18.457Z,5.7
2019-05-21T06:48:18.376Z,5
2019-05-21T06:50:18.120Z,4.8
2019-05-21T06:52:16.775Z,4.9
2019-05-21T06:54:19.532Z,4.8
2019-05-21T06:56:18.728Z,5
2019-05-21T06:58:18.580Z,4.8
2019-05-21T07:00:18.164Z,4.4
2019-05-21T07:02:17.704Z,4.8
2019-05-21T07:04:16.493Z,5
2019-05-21T07:06:19.050Z,5
2019-05-21T07:08:33.431Z,5.2
2019-05-21T07:10:18.310Z,5
2019-05-21T07:12:17.028Z,4.2
2019-05-21T07:14:17.690Z,4.3
2019-05-21T07:16:18.450Z,4.2
2019-05-21T07:18:18.008Z,4.5
2019-05-21T07:20:17.588Z,3.8
2019-05-21T07:22:17.180Z,4.7
2019-05-21T07:24:16.829Z,4.1
2019-05-21T07:26:16.553Z,3.6
2019-05-21T07:28:19.340Z,3.7
2019-05-21T07:30:18.884Z,4
2019-05-21T07:32:17.340Z,3.3
2019-05-21T07:34:17.112Z,3.3
2019-05-21T07:36:16.733Z,3.2
2019-05-21T07:38:18.519Z,4.5
2019-05-21T07:40:17.756Z,3.5
2019-05-21T07:42:18.369Z,3.8
2019-05-21T07:44:18.030Z,3.7
2019-05-21T07:46:16.775Z,4.1
2019-05-21T07:48:18.486Z,3.6
2019-05-21T07:50:18.039Z,3.5
2019-05-21T07:52:17.478Z,2.8
2019-05-21T07:54:17.047Z,2.8
2019-05-21T07:56:16.624Z,2.3
2019-05-21T07:58:18.391Z,2.5
2019-05-21T08:00:17.989Z,2.8
2019-05-21T08:02:18.440Z,2.2
2019-05-21T08:04:18.092Z,2.5
2019-05-21T08:06:16.910Z,2.3
2019-05-21T08:08:17.528Z,2.2
2019-05-21T08:10:19.065Z,2.2
2019-05-21T08:12:37.106Z,2.5
2019-05-21T08:14:17.171Z,2.5
2019-05-21T08:16:16.842Z,3.1
2019-05-21T08:18:16.519Z,2.1
2019-05-21T08:20:18.373Z,2.1
2019-05-21T08:22:18.855Z,2.5
2019-05-21T08:24:17.307Z,2.2
2019-05-21T08:26:17.989Z,2.4
2019-05-21T08:28:16.614Z,2.1
2019-05-21T08:30:18.365Z,2.3
2019-05-21T08:32:17.803Z,2.2
2019-05-21T08:34:17.286Z,1.7
2019-05-21T08:36:16.972Z,1.9
2019-05-21T08:38:16.629Z,1.6
2019-05-21T08:40:18.145Z,1.9
2019-05-21T08:42:17.587Z,1.5
2019-05-21T08:44:17.237Z,1.7
2019-05-21T08:46:17.000Z,1.8
2019-05-21T08:48:16.639Z,1.7
2019-05-21T08:50:18.435Z,1.4
2019-05-21T08:52:17.901Z,1.7
2019-05-21T08:54:17.390Z,1.1
2019-05-21T08:56:17.069Z,1.5
2019-05-21T08:58:16.822Z,2.1
2019-05-21T09:00:18.481Z,1.7
2019-05-21T09:02:17.929Z,2
2019-05-21T09:04:17.436Z,2
2019-05-21T09:06:17.232Z,1.9
2019-05-21T09:08:16.998Z,2
2019-05-21T09:10:16.797Z,1.5
2019-05-21T09:12:16.617Z,1.4
2019-05-21T09:14:18.239Z,1.7
2019-05-21T09:16:17.658Z,1.2
2019-05-21T09:18:17.177Z,1.3
2019-05-21T09:20:16.989Z,1.6
2019-05-21T09:22:16.613Z,1.3
2019-05-21T09:24:18.357Z,1.5
2019-05-21T09:26:18.230Z,1.3
2019-05-21T09:28:17.501Z,2
2019-05-21T09:30:17.166Z,1.7
2019-05-21T09:32:16.883Z,1.1
2019-05-21T09:34:16.550Z,2.2
2019-05-21T09:36:18.082Z,1.5
2019-05-21T09:38:17.661Z,1.1
2019-05-21T09:40:17.411Z,1.1
2019-05-21T09:42:17.007Z,1.3
2019-05-21T09:44:16.684Z,1
2019-05-21T09:46:18.468Z,1.1
2019-05-21T09:48:17.916Z,1.5
2019-05-21T09:50:17.456Z,0.9
2019-05-21T09:52:17.113Z,1.1
2019-05-21T09:54:16.753Z,1.3
2019-05-21T09:56:16.500Z,1
2019-05-21T09:58:18.406Z,1.1
2019-05-21T10:00:17.944Z,1.1
2019-05-21T10:02:17.554Z,0.9
2019-05-21T10:04:17.162Z,0.7
2019-05-21T10:06:16.911Z,0.8
2019-05-21T10:08:16.567Z,1.5
2019-05-21T10:10:18.058Z,1.2
2019-05-21T10:12:17.549Z,1.1
2019-05-21T10:14:17.195Z,1.3
2019-05-21T10:16:16.906Z,0.9
2019-05-21T10:18:18.476Z,0.9
2019-05-21T10:20:18.107Z,1.5
2019-05-21T10:22:17.582Z,1.3
2019-05-21T10:24:17.142Z,0.6
2019-05-21T10:26:16.797Z,1.2
2019-05-21T10:28:16.444Z,0.8
2019-05-21T10:30:18.226Z,1.2
2019-05-21T10:32:17.708Z,1.1
2019-05-21T10:34:17.339Z,0.9
2019-05-21T10:36:17.115Z,0.9
2019-05-21T10:38:16.821Z,0.9
2019-05-21T10:40:16.662Z,0.7
2019-05-21T10:42:18.457Z,1.1
2019-05-21T10:44:17.917Z,1
2019-05-21T10:46:17.442Z,1
2019-05-21T10:48:17.037Z,0.8
2019-05-21T10:50:16.754Z,0.9
2019-05-21T10:52:18.423Z,1.2
2019-05-21T10:54:17.981Z,1.4
2019-05-21T10:56:17.575Z,2.1
2019-05-21T10:58:17.198Z,1.1
2019-05-21T11:00:16.890Z,1.5
2019-05-21T11:02:16.533Z,1.8
2019-05-21T11:04:18.239Z,1.3
2019-05-21T11:06:17.549Z,1.7
2019-05-21T11:08:25.344Z,2.4
2019-05-21T11:10:17.152Z,2.1
2019-05-21T11:12:16.882Z,2.2
2019-05-21T11:14:16.522Z,2.1
2019-05-21T11:16:17.640Z,2.3
2019-05-21T11:18:17.284Z,1.7
2019-05-21T11:20:17.065Z,1.7
2019-05-21T11:22:16.846Z,1.8
2019-05-21T11:24:16.546Z,1.4
2019-05-21T11:26:17.979Z,1.8
2019-05-21T11:28:17.427Z,1.7
2019-05-21T11:30:17.074Z,1.5
2019-05-21T11:32:16.691Z,1.5
2019-05-21T11:34:18.386Z,1.6
2019-05-21T11:36:17.700Z,1.5
2019-05-21T11:38:17.326Z,2.1
2019-05-21T11:40:17.045Z,1.2
2019-05-21T11:42:16.612Z,1.2
2019-05-21T11:44:18.311Z,1.3
2019-05-21T11:46:17.649Z,1.2
2019-05-21T11:48:17.265Z,1.7
2019-05-21T11:50:17.077Z,1.4
2019-05-21T11:52:16.750Z,1.4
2019-05-21T11:54:18.477Z,1.4
2019-05-21T11:56:18.193Z,1.6
2019-05-21T11:58:17.625Z,1.7
2019-05-21T12:00:21.109Z,1.4
2019-05-21T12:02:17.062Z,1.4
2019-05-21T12:04:16.826Z,1.2
2019-05-21T12:06:16.643Z,1.8
2019-05-21T12:08:18.413Z,1.2
2019-05-21T12:10:17.800Z,1.3
2019-05-21T12:12:17.264Z,1.2
2019-05-21T12:14:16.817Z,1.2
2019-05-21T12:16:16.614Z,3
2019-05-21T12:18:18.345Z,2.6
2019-05-21T12:20:33.577Z,2.7
2019-05-21T12:22:17.523Z,2.8
2019-05-21T12:24:17.190Z,2.8
2019-05-21T12:26:17.069Z,2.2
2019-05-21T12:28:16.817Z,2.6
2019-05-21T12:30:16.655Z,3
2019-05-21T12:32:20.761Z,2.6
2019-05-21T12:34:17.948Z,2.7
2019-05-21T12:36:17.508Z,2.5
2019-05-21T12:38:17.135Z,1.9
2019-05-21T12:40:16.838Z,2.4
2019-05-21T12:42:16.612Z,2.1
2019-05-21T12:44:18.408Z,2.5
2019-05-21T12:46:17.730Z,2.4
2019-05-21T12:48:17.389Z,2.1
2019-05-21T12:50:17.012Z,2.1
2019-05-21T12:52:16.792Z,2
2019-05-21T12:54:16.463Z,1.9
2019-05-21T12:56:18.190Z,1.8
2019-05-21T12:58:17.634Z,1.9
2019-05-21T13:00:17.290Z,2
2019-05-21T13:02:16.945Z,1.7
2019-05-21T13:04:16.608Z,1.4
2019-05-21T13:06:18.191Z,1.7
2019-05-21T13:08:17.735Z,1.7
2019-05-21T13:10:17.434Z,1.1
2019-05-21T13:12:17.027Z,1.6
2019-05-21T13:14:18.798Z,1.9
2019-05-21T13:16:18.467Z,1.9
2019-05-21T13:18:17.997Z,2.2
2019-05-21T13:20:17.510Z,2.2
2019-05-21T13:22:17.194Z,2.2
2019-05-21T13:24:16.865Z,2.8
2019-05-21T13:26:16.681Z,2.1
2019-05-21T13:28:18.496Z,1.4
2019-05-21T13:30:18.007Z,2.1
2019-05-21T13:32:17.516Z,1.8
2019-05-21T13:34:17.170Z,2.2
2019-05-21T13:36:16.995Z,3.1
2019-05-21T13:38:16.636Z,2.1
2019-05-21T13:40:18.483Z,1.5
2019-05-21T13:42:17.986Z,1.7
2019-05-21T13:44:17.463Z,1.2
2019-05-21T13:46:17.243Z,1.7
2019-05-21T13:48:16.868Z,1.7
2019-05-21T13:50:16.676Z,1.8
2019-05-21T13:52:16.456Z,1.3
2019-05-21T13:54:18.308Z,2.4
2019-05-21T13:56:17.815Z,2.1
2019-05-21T13:58:17.222Z,1.3
2019-05-21T14:00:16.918Z,1.8
2019-05-21T14:02:16.644Z,1.6
2019-05-21T14:04:18.362Z,1.3
2019-05-21T14:06:20.225Z,1.4
2019-05-21T14:08:17.584Z,1.4
2019-05-21T14:10:20.423Z,1.3
2019-05-21T14:12:17.035Z,1.6
2019-05-21T14:14:16.683Z,1.5
2019-05-21T14:16:17.846Z,1.3
2019-05-21T14:18:17.286Z,1.8
2019-05-21T14:20:17.001Z,1.2
2019-05-21T14:22:16.824Z,1.5
2019-05-21T14:24:16.496Z,1.4
2019-05-21T14:26:18.079Z,1.6
2019-05-21T14:28:17.551Z,1.6
2019-05-21T14:30:17.319Z,1.5
2019-05-21T14:32:16.973Z,1.4
2019-05-21T14:34:16.513Z,1.8
2019-05-21T14:36:18.149Z,1.4
2019-05-21T14:38:17.620Z,1.5
2019-05-21T14:40:30.838Z,1.3
2019-05-21T14:42:16.971Z,1.3
2019-05-21T14:44:16.655Z,1.3
2019-05-21T14:46:18.135Z,1.4
2019-05-21T14:48:17.756Z,1.4
2019-05-21T14:50:17.341Z,1.5
2019-05-21T14:52:17.163Z,1.4
2019-05-21T14:54:25.876Z,1.2
2019-05-21T14:56:16.693Z,0.9
2019-05-21T14:58:18.615Z,1
2019-05-21T15:00:17.917Z,1.1
2019-05-21T15:02:17.352Z,1.5
2019-05-21T15:04:17.071Z,1.2
2019-05-21T15:06:16.798Z,1.1
2019-05-21T15:08:18.512Z,1.2
2019-05-21T15:10:18.013Z,1.1
2019-05-21T15:12:17.401Z,1
2019-05-21T15:14:17.103Z,1.3
2019-05-21T15:16:16.768Z,1.1
2019-05-21T15:18:21.458Z,1.3
2019-05-21T15:20:18.027Z,1.2
2019-05-21T15:22:17.439Z,1
2019-05-21T15:24:17.223Z,1.1
2019-05-21T15:26:16.942Z,1.1
2019-05-21T15:28:16.529Z,1.6
2019-05-21T15:30:18.282Z,1.4
2019-05-21T15:32:17.946Z,1.8
2019-05-21T15:34:17.460Z,1.2
2019-05-21T15:36:17.213Z,1.5
2019-05-21T15:38:16.974Z,1.6
2019-05-21T15:40:16.728Z,1.5
2019-05-21T15:42:18.507Z,1.7
2019-05-21T15:44:18.047Z,1.5
2019-05-21T15:46:17.681Z,1.4
2019-05-21T15:48:17.311Z,1.9
2019-05-21T15:50:16.964Z,2.1
2019-05-21T15:52:16.562Z,1.5
2019-05-21T15:54:18.256Z,1.7
2019-05-21T15:56:17.828Z,1.7
2019-05-21T15:58:17.325Z,2.5
2019-05-21T16:00:16.979Z,1.8
2019-05-21T16:02:16.680Z,1.6
2019-05-21T16:04:18.389Z,2
2019-05-21T16:06:17.685Z,1.8
2019-05-21T16:08:17.217Z,2.3
2019-05-21T16:10:16.934Z,2.1
2019-05-21T16:12:16.736Z,2.9
2019-05-21T16:14:18.450Z,2.5
2019-05-21T16:16:18.010Z,1.9
2019-05-21T16:18:17.524Z,1.9
2019-05-21T16:20:17.353Z,1.9
2019-05-21T16:22:17.001Z,2.2
2019-05-21T16:24:16.675Z,2.3
2019-05-21T16:26:18.444Z,2.3
2019-05-21T16:28:17.930Z,2.7
2019-05-21T16:30:17.420Z,3
2019-05-21T16:32:17.048Z,2.1
2019-05-21T16:34:16.859Z,1.8
2019-05-21T16:36:16.559Z,2
2019-05-21T16:38:18.281Z,2.4
2019-05-21T16:40:17.903Z,1.7
2019-05-21T16:42:17.374Z,2.6
2019-05-21T16:44:17.034Z,2.1
2019-05-21T16:46:16.904Z,2.2
2019-05-21T16:48:16.513Z,2
2019-05-21T16:50:18.348Z,2.3
2019-05-21T16:52:17.994Z,2
2019-05-21T16:54:17.472Z,2.1
2019-05-21T16:56:17.275Z,2.3
2019-05-21T16:58:16.890Z,2.1
2019-05-21T17:00:16.587Z,1.8
2019-05-21T17:02:18.218Z,1.5
2019-05-21T17:04:17.816Z,1.8
2019-05-21T17:06:17.418Z,2.3
2019-05-21T17:08:17.089Z,2.2
2019-05-21T17:10:16.987Z,2.2
2019-05-21T17:12:16.613Z,2.2
2019-05-21T17:14:18.265Z,2.3
2019-05-21T17:16:17.552Z,2
2019-05-21T17:18:17.274Z,2.2
2019-05-21T17:20:17.030Z,2
2019-05-21T17:22:16.808Z,2
2019-05-21T17:24:18.489Z,1.9
2019-05-21T17:26:17.834Z,2.2
2019-05-21T17:28:17.255Z,1.5
2019-05-21T17:30:16.997Z,1.6
2019-05-21T17:32:16.690Z,1.7
2019-05-21T17:34:18.539Z,1.2
2019-05-21T17:36:17.797Z,1.9
2019-05-21T17:38:17.234Z,1.6
2019-05-21T17:40:16.945Z,1.4
2019-05-21T17:42:16.768Z,1.4
2019-05-21T17:44:18.488Z,1.2
2019-05-21T17:46:17.833Z,1.8
2019-05-21T17:48:17.332Z,1.6
2019-05-21T17:50:17.038Z,1.1
2019-05-21T17:52:16.715Z,1.4
2019-05-21T17:54:18.354Z,1.3
2019-05-21T17:56:17.636Z,1.6
2019-05-21T17:58:17.286Z,1
2019-05-21T18:00:16.917Z,1.4
2019-05-21T18:02:16.638Z,1.4
2019-05-21T18:04:18.328Z,1.5
2019-05-21T18:06:17.642Z,1.3
2019-05-21T18:08:17.374Z,1.5
2019-05-21T18:10:17.030Z,1.3
2019-05-21T18:12:31.042Z,1.6
2019-05-21T18:14:18.395Z,1.4
2019-05-21T18:16:17.649Z,1.3
2019-05-21T18:18:17.234Z,1.4
2019-05-21T18:20:17.042Z,1.4
2019-05-21T18:22:16.730Z,2.1
2019-05-21T18:24:18.455Z,2.4
2019-05-21T18:26:18.075Z,1.3
2019-05-21T18:28:17.523Z,1.4
2019-05-21T18:30:17.260Z,1.3
2019-05-21T18:32:16.951Z,1.5
2019-05-21T18:34:16.544Z,1.7
2019-05-21T18:36:18.085Z,1.6
2019-05-21T18:38:17.571Z,1.5
2019-05-21T18:40:17.257Z,1
2019-05-21T18:42:21.984Z,1.2
2019-05-21T18:44:16.679Z,1.1
2019-05-21T18:46:18.460Z,1.3
2019-05-21T18:48:17.853Z,1.3
2019-05-21T18:50:17.393Z,1.1
2019-05-21T18:52:17.217Z,1.2
2019-05-21T18:54:17.020Z,1.2
2019-05-21T18:56:16.678Z,1
2019-05-21T18:58:17.599Z,0.7
2019-05-21T19:00:18.302Z,1
2019-05-21T19:02:17.793Z,0.5
2019-05-21T19:04:17.274Z,0.8
2019-05-21T19:06:17.164Z,0.8
2019-05-21T19:08:16.898Z,0.5
2019-05-21T19:10:16.658Z,0.5
2019-05-21T19:12:18.497Z,0.6
2019-05-21T19:14:17.949Z,0.6
2019-05-21T19:16:17.497Z,0.8
2019-05-21T19:18:17.153Z,0.6
2019-05-21T19:20:16.774Z,0.8
2019-05-21T19:22:16.441Z,0.8
2019-05-21T19:24:18.221Z,1
2019-05-21T19:26:17.644Z,1.3
2019-05-21T19:28:17.246Z,1.2
2019-05-21T19:30:16.899Z,1.3
2019-05-21T19:32:17.546Z,1.4
2019-05-21T19:34:18.249Z,1.5
2019-05-21T19:36:17.819Z,1.3
2019-05-21T19:38:17.273Z,1
2019-05-21T19:40:18.096Z,1.6
2019-05-21T19:42:16.755Z,1.1
2019-05-21T19:44:18.375Z,1.6
2019-05-21T19:46:17.746Z,1.7
2019-05-21T19:48:17.381Z,2
2019-05-21T19:50:17.089Z,1.9
2019-05-21T19:52:16.768Z,2.3
2019-05-21T19:54:18.514Z,3.1
2019-05-21T19:56:17.826Z,3.2
2019-05-21T19:58:17.405Z,3
2019-05-21T20:00:17.132Z,4.2
2019-05-21T20:02:17.007Z,4.2
2019-05-21T20:04:16.560Z,3.3
2019-05-21T20:06:18.058Z,4.7
2019-05-21T20:08:17.458Z,6
2019-05-21T20:10:17.213Z,5.8
2019-05-21T20:12:16.937Z,6.2
2019-05-21T20:14:17.625Z,5.5
2019-05-21T20:16:18.434Z,5.7
2019-05-21T20:18:17.931Z,5.6
2019-05-21T20:20:18.446Z,7
2019-05-21T20:22:18.162Z,6.5
2019-05-21T20:24:17.761Z,7.1
2019-05-21T20:26:17.511Z,6.4
2019-05-21T20:28:18.293Z,7.4
2019-05-21T20:30:17.802Z,7.2
2019-05-21T20:32:17.284Z,6.7
2019-05-21T20:34:16.949Z,6.7
2019-05-21T20:36:16.696Z,6.6
2019-05-21T20:38:19.419Z,7.1
2019-05-21T20:40:18.645Z,8
2019-05-21T20:42:17.875Z,7.8
2019-05-21T20:44:17.041Z,6.9
2019-05-21T20:46:16.741Z,8.8
2019-05-21T20:48:16.432Z,6.9
2019-05-21T20:50:19.156Z,7.2
2019-05-21T20:52:19.073Z,7.2
2019-05-21T20:54:17.263Z,6.5
2019-05-21T20:56:17.009Z,7.2
2019-05-21T20:58:17.722Z,6.7
2019-05-21T21:00:16.510Z,6.1
2019-05-21T21:02:19.302Z,8.6
2019-05-21T21:04:18.849Z,7.2
2019-05-21T21:06:34.092Z,7.6
2019-05-21T21:08:18.246Z,8
2019-05-21T21:10:18.021Z,7.6
2019-05-21T21:12:16.741Z,8.6
2019-05-21T21:14:18.664Z,6.3
2019-05-21T21:16:17.926Z,7.8
2019-05-21T21:18:18.431Z,6.6
2019-05-21T21:20:18.050Z,7.6
2019-05-21T21:22:17.853Z,8.7
2019-05-21T21:24:19.470Z,8.3
2019-05-21T21:26:18.726Z,7.3
2019-05-21T21:28:18.497Z,8.5
2019-05-21T21:30:18.196Z,7.4
2019-05-21T21:32:17.878Z,7.6
2019-05-21T21:34:17.448Z,7.8
2019-05-21T21:36:18.127Z,7.9
2019-05-21T21:38:18.630Z,8.4
2019-05-21T21:40:18.314Z,7.6
2019-05-21T21:42:17.098Z,7.7
2019-05-21T21:44:31.567Z,7.6
2019-05-21T21:46:17.555Z,8
2019-05-21T21:48:17.135Z,9.8
2019-05-21T21:50:16.816Z,8.4
2019-05-21T21:52:17.608Z,7.7
2019-05-21T21:54:19.256Z,7.6
2019-05-21T21:56:18.543Z,8.2
2019-05-21T21:58:17.214Z,8.6
2019-05-21T22:00:17.882Z,8.3
2019-05-21T22:02:16.519Z,8.2
2019-05-21T22:04:18.290Z,7.9
2019-05-21T22:06:18.556Z,8.5
2019-05-21T22:08:17.234Z,9.2
2019-05-21T22:10:17.975Z,9
2019-05-21T22:12:17.604Z,8
2019-05-21T22:14:19.247Z,8
2019-05-21T22:16:17.800Z,8
2019-05-21T22:18:18.316Z,8.9
2019-05-21T22:20:18.048Z,8.8
2019-05-21T22:22:17.832Z,7.6
2019-05-21T22:24:17.498Z,8.3
2019-05-21T22:26:18.023Z,7.8
2019-05-21T22:28:17.483Z,7.8
2019-05-21T22:30:18.242Z,7.6
2019-05-21T22:32:16.998Z,9.1
2019-05-21T22:34:17.652Z,8.6
2019-05-21T22:36:18.534Z,8.9
2019-05-21T22:38:19.001Z,8.7
2019-05-21T22:40:18.595Z,9.6
2019-05-21T22:42:18.301Z,9.1
2019-05-21T22:44:16.916Z,9.4
2019-05-21T22:46:17.716Z,10.4
2019-05-21T22:48:19.448Z,9.6
2019-05-21T22:50:18.969Z,8.6
2019-05-21T22:52:17.438Z,8.4
2019-05-21T22:54:18.126Z,8.8
2019-05-21T22:56:17.864Z,9.5
2019-05-21T22:58:16.543Z,10.2
2019-05-21T23:00:19.341Z,9.5
2019-05-21T23:02:18.782Z,10
2019-05-21T23:04:17.254Z,9.5
2019-05-21T23:06:18.109Z,10.2
2019-05-21T23:08:16.727Z,9.2
2019-05-21T23:10:19.486Z,9.8
2019-05-21T23:12:18.975Z,9.5
2019-05-21T23:14:18.324Z,10.8
2019-05-21T23:16:18.132Z,9.9
2019-05-21T23:18:17.749Z,10
2019-05-21T23:20:19.533Z,9.4
2019-05-21T23:22:18.991Z,8.7
2019-05-21T23:24:18.424Z,9.7
2019-05-21T23:26:18.111Z,9
2019-05-21T23:28:17.851Z,9
2019-05-21T23:30:17.603Z,9.4
2019-05-21T23:32:19.276Z,10.2
2019-05-21T23:34:18.867Z,9.3
2019-05-21T23:36:18.425Z,9.3
2019-05-21T23:38:18.061Z,11.2
2019-05-21T23:40:17.960Z,10
2019-05-21T23:42:28.909Z,8.7
2019-05-21T23:44:17.533Z,9.1
2019-05-21T23:46:19.075Z,8.6
2019-05-21T23:48:17.565Z,10.2
2019-05-21T23:50:18.218Z,8.6
2019-05-21T23:52:17.950Z,9.7
2019-05-21T23:54:16.584Z,8.4
2019-05-21T23:56:18.284Z,9.2
2019-05-21T23:58:18.743Z,8.4
